Terminal Aerodrome Forecast
Issued by NWS Cleveland, OH

Home | Current Version | Previous Version | Text Only | Print | Product List | Glossary On
Versions: 1 2 3 4 5 6 7 8 9 10 11 12 13
000
FTUS41 KCLE 220800 AAA
TAFTOL
TAF AMD
KTOL 220818Z 2208/2306 25007KT P6SM VCSH SCT070 BKN100
      TEMPO 2209/2210 -SHRA BKN070
     FM221300 30008KT P6SM SCT090
     FM221400 35010KT P6SM FEW040
     FM230000 VRB04KT P6SM SKC=

USA.gov is the U.S. government's official web portal to all federal, state and local government web resources and services.